Airfield :
LOGIN :

Register | Disclaimer

   EN    FR    IT 

 










Legend :    VFR   Marginal VFR   IFR   Intensive IFR   Very Intensive IFR
Visi :
Ceiling :
>= 8 km
>= 3000ft
5 to 8 km
1000 to 3000 ft
1500m to 5 km
500 to 1000 ft
800 to 1500m
200 to 500 ft
< 800m
< 200 ft
Symbols :   Thunderstorms  Fog  Heavy snow  Heavy precipitations  Wind > 20 kt
SIGMETs :     Misc.  Thunderstorms  Icing  Turbulence  Mountain Waves  Volcanic Ashes






- Airport Elevation : 876 ft
- IATA code : MBX


LJMB - Maribor

CURRENT METAR :
  • 041100Z 34011KT 9999 FEW043 BKN130 28/17 Q1018

EXPIRED METARs :
  • 041030Z 04005KT 340V100 CAVOK 31/18 Q1017
  • 041000Z 36005KT 330V070 CAVOK 32/18 Q1017
  • 040930Z 06002KT CAVOK 32/16 Q1017
  • 040900Z 36001KT CAVOK 30/16 Q1017

TAF TAF LJMB
Valid from the 04 at 12:00 until the 05 at 12:00 UTC


041100Z 0412/0512 01007KT CAVOK
TEMPO 0416/0512 36015G30KT 3500 TSRA BKN045CB
PROB30
TEMPO 0422/0508 BKN015
PROB40
TEMPO 0503/0512 -SHRA BKN030TCU



MET'MAP, your aeronautical weather chart ! - Copyright ORBIFLY December 2007 - Disclaimer

ORBIFLY MET'MAP TEAM :

Programming & Development : Alexandra Zaïnal
Original concept : Baudouin d'Aumeries
Technical & hardware support : Manuel Goepfert
Assistance : Marc-Olivier Méhu




SOURCES & CREDITS :

   NOAA